aviador You're here:

GMAD Decoded Metar

AL MASSIRA MC in MOROCCO
Report Time2017-08-22 11:00:00
UTC Time2017-08-22 11:09:45
Flight Rules vfr VFR
Wind270° at 08 kt
W.Decomp.*RWY 28: 7.9 kt HW 1 kt LCW
W.Rank270° ranks 2
Current wind is below 270° avg. (10.1)
Visibility8000 m
Phenomena:N/A
Clouds:N/A
Expected CloudBase > 5,600 ft AGL from Temp-Dew spread
CeilingNone
Temp31°C (ISA +16)
Dew Point17°C (43% RH)
Heat Index31.4°C
AAT30.5°C
QNH1012 hPa
Density Alt2,421 ft
Elevation243 ft
Report Wrong Elevation
Raw Report
METAR GMAD 221100Z 27008KT 230V290 8000 NSC 31/17 Q1012 NOSIG=

Extra information for GMAD:More info

Metar Taf Metar & Taf Last 4 Metars F.Rules Stats Wind Profile Meteogram Temp Stats Airport Information Weather charts Add Link Nearby VenuesMetar ALERT Operation Metar Decoded Social comments